createdAt,value
2022-12-29T08:24:18.448Z,11.80
2022-12-29T08:26:52.557Z,11.97
2022-12-29T08:29:20.624Z,13.10
2022-12-29T08:31:48.068Z,14.33
2022-12-29T08:34:15.736Z,12.70
2022-12-29T08:36:43.082Z,14.13
2022-12-29T08:39:10.451Z,10.83
2022-12-29T08:41:37.801Z,14.63
2022-12-29T08:44:05.250Z,14.10
2022-12-29T08:46:32.782Z,10.43
2022-12-29T08:49:00.198Z,12.20
2022-12-29T08:51:27.693Z,14.57
2022-12-29T08:53:55.205Z,12.53
2022-12-29T08:56:24.779Z,14.27
2022-12-29T08:58:56.051Z,13.77
2022-12-29T09:01:24.954Z,13.17
2022-12-29T09:04:14.332Z,11.40
2022-12-29T09:06:40.714Z,12.00
2022-12-29T09:09:08.635Z,13.07
2022-12-29T09:11:36.054Z,13.03
2022-12-29T09:14:03.517Z,11.33
2022-12-29T09:16:31.053Z,11.63
2022-12-29T09:18:58.459Z,13.33
2022-12-29T09:21:25.942Z,10.63
2022-12-29T09:23:54.305Z,11.33
2022-12-29T09:26:21.781Z,11.80
2022-12-29T09:28:49.145Z,13.87
2022-12-29T09:31:16.572Z,10.97
2022-12-29T09:33:44.147Z,11.23
2022-12-29T09:36:11.451Z,13.13
2022-12-29T09:38:38.816Z,14.13
2022-12-29T09:45:27.904Z,11.83
2022-12-29T09:47:55.310Z,9.87
2022-12-29T09:50:39.010Z,11.70
2022-12-29T09:53:25.033Z,16.50
2022-12-29T09:56:24.204Z,11.37
2022-12-29T09:58:54.610Z,13.00
2022-12-29T10:01:22.071Z,11.45
2022-12-29T10:03:55.002Z,11.83
2022-12-29T10:06:36.154Z,12.57
2022-12-29T10:09:08.823Z,12.70
2022-12-29T10:12:04.570Z,10.13
2022-12-29T10:14:42.167Z,11.37
2022-12-29T10:17:28.473Z,10.77
2022-12-29T10:20:21.146Z,12.13
2022-12-29T10:23:08.756Z,12.37
2022-12-29T10:25:40.220Z,14.17
2022-12-29T10:28:12.949Z,17.53
2022-12-29T10:30:40.720Z,13.43
2022-12-29T10:33:10.624Z,11.33
2022-12-29T10:35:40.010Z,15.10
2022-12-29T10:38:16.697Z,13.37
2022-12-29T10:40:50.718Z,12.43
2022-12-29T10:43:44.507Z,15.87
2022-12-29T10:46:14.831Z,15.67
2022-12-29T10:48:46.276Z,10.40
2022-12-29T10:51:16.151Z,14.07
2022-12-29T10:53:48.908Z,14.10
2022-12-29T10:56:36.747Z,13.70
2022-12-29T10:59:09.639Z,13.30
2022-12-29T11:01:41.554Z,13.37
2022-12-29T11:04:22.951Z,15.10
2022-12-29T11:06:51.891Z,13.60
2022-12-29T11:09:36.625Z,13.17
2022-12-29T11:12:23.214Z,11.57
2022-12-29T11:15:02.790Z,10.70
2022-12-29T11:17:30.203Z,15.10
2022-12-29T11:19:57.611Z,15.13
2022-12-29T11:22:30.144Z,11.83
2022-12-29T11:25:07.866Z,15.03
2022-12-29T11:27:35.188Z,13.80
2022-12-29T11:30:04.541Z,13.27
2022-12-29T11:32:31.965Z,13.57
2022-12-29T11:35:00.348Z,14.50
2022-12-29T11:37:31.177Z,11.63
2022-12-29T11:40:05.512Z,15.13
2022-12-29T11:42:56.295Z,13.27
2022-12-29T11:45:25.285Z,14.27
2022-12-29T11:47:54.757Z,14.93
2022-12-29T11:50:32.597Z,14.93
2022-12-29T11:53:08.480Z,14.67
2022-12-29T11:55:35.920Z,13.43
2022-12-29T11:58:04.617Z,13.80
2022-12-29T12:00:33.937Z,12.73
2022-12-29T12:03:04.597Z,13.47
2022-12-29T12:05:34.941Z,13.47
2022-12-29T12:08:05.114Z,14.87
2022-12-29T12:10:39.838Z,18.37
2022-12-29T12:13:19.940Z,14.10
2022-12-29T12:15:57.751Z,13.73
2022-12-29T12:18:29.040Z,14.97
2022-12-29T12:20:58.823Z,16.97
2022-12-29T12:23:32.261Z,38.73
2022-12-29T12:26:04.607Z,12.57
2022-12-29T12:28:50.592Z,18.60
2022-12-29T12:31:26.428Z,13.30
2022-12-29T12:33:59.533Z,13.47
2022-12-29T12:36:35.915Z,12.53
2022-12-29T12:39:06.345Z,17.40
2022-12-29T12:41:45.974Z,15.30
2022-12-29T12:44:30.015Z,17.23
2022-12-29T12:47:00.564Z,17.33
2022-12-29T12:49:28.064Z,15.87
2022-12-29T16:39:24.458Z,14.43
2022-12-29T16:41:52.632Z,17.07
2022-12-29T16:44:28.225Z,15.00
2022-12-29T16:47:03.301Z,16.57
2022-12-29T16:49:32.176Z,14.63
2022-12-29T16:51:59.588Z,17.67
2022-12-29T16:54:32.369Z,17.87
2022-12-29T16:57:00.241Z,16.00
2022-12-29T16:59:32.562Z,15.93
2022-12-29T17:02:01.093Z,14.43
2022-12-29T17:04:31.419Z,14.43
2022-12-29T17:06:58.817Z,19.17
2022-12-29T17:09:27.154Z,17.77
2022-12-29T17:12:01.605Z,15.03
2022-12-29T17:14:38.154Z,20.00
2022-12-29T17:17:09.107Z,16.43
2022-12-29T17:19:38.641Z,16.73
2022-12-29T17:22:21.253Z,17.90
2022-12-29T17:24:48.618Z,15.97
2022-12-29T17:27:22.199Z,18.13
2022-12-29T17:29:49.860Z,17.10
2022-12-29T17:32:17.647Z,14.00
2022-12-29T17:34:44.978Z,14.60
2022-12-29T17:37:29.967Z,16.63
2022-12-29T17:39:57.573Z,16.97
2022-12-29T17:42:25.005Z,18.00
2022-12-29T17:44:52.428Z,14.57
2022-12-29T17:47:19.836Z,15.40
2022-12-29T17:49:47.244Z,16.53
2022-12-29T17:52:15.300Z,17.20
2022-12-29T17:54:45.574Z,16.10
2022-12-29T17:57:17.215Z,16.67
2022-12-29T17:59:44.770Z,15.00
2022-12-29T18:02:25.706Z,17.53
2022-12-29T18:04:53.743Z,17.80
2022-12-29T18:07:21.251Z,18.77
2022-12-29T18:09:48.640Z,17.83
2022-12-29T18:12:38.475Z,16.33
2022-12-29T18:15:06.353Z,15.07
2022-12-29T18:17:33.775Z,18.47
2022-12-29T18:20:01.093Z,18.03
2022-12-29T18:22:30.143Z,19.77
2022-12-29T18:24:57.612Z,19.03
2022-12-29T18:27:24.967Z,19.30
2022-12-29T18:29:52.334Z,18.23
2022-12-29T18:32:21.259Z,19.03
2022-12-29T18:34:49.093Z,19.67
2022-12-29T18:37:16.513Z,19.40
2022-12-29T18:39:43.937Z,19.37
2022-12-29T18:42:17.560Z,19.30
2022-12-29T18:44:44.988Z,18.43
2022-12-29T18:47:12.454Z,19.77
2022-12-29T18:49:39.883Z,19.90
2022-12-29T18:52:07.253Z,18.93
2022-12-29T18:54:34.689Z,19.00
2022-12-29T18:57:02.068Z,17.03
2022-12-29T18:59:29.431Z,17.10
2022-12-29T19:01:56.858Z,17.30
2022-12-29T19:04:24.207Z,20.70
2022-12-29T19:06:51.589Z,19.53
2022-12-29T19:09:19.007Z,24.53
2022-12-29T19:11:46.368Z,22.73
2022-12-29T19:14:16.666Z,28.13
2022-12-29T19:16:44.116Z,20.47
2022-12-29T19:19:15.103Z,21.97
2022-12-29T19:21:42.644Z,19.57
2022-12-29T19:24:09.989Z,18.87
2022-12-29T19:26:38.842Z,21.30
2022-12-29T19:29:14.789Z,22.60
2022-12-29T19:31:42.334Z,20.43
2022-12-29T19:34:10.673Z,20.20
2022-12-29T19:36:38.048Z,19.77
2022-12-29T19:39:06.142Z,20.03
2022-12-29T19:41:33.599Z,22.77
2022-12-29T19:44:01.466Z,20.77
2022-12-29T19:46:28.962Z,21.53
2022-12-29T19:48:59.499Z,21.40
2022-12-29T19:51:27.150Z,24.13
2022-12-29T19:53:55.448Z,20.83
2022-12-29T19:56:23.013Z,25.67
2022-12-29T19:58:51.193Z,23.70
2022-12-29T20:01:20.146Z,21.60
2022-12-29T20:03:47.641Z,21.33
2022-12-29T20:06:15.747Z,20.60
2022-12-29T20:08:43.246Z,20.87
2022-12-29T20:11:15.340Z,20.17
2022-12-29T20:13:43.780Z,22.57
2022-12-29T20:16:13.754Z,21.07
2022-12-29T20:18:41.235Z,22.17
2022-12-29T20:21:19.727Z,21.40
2022-12-29T20:23:47.980Z,21.30
2022-12-29T20:26:17.442Z,24.03
2022-12-29T20:28:44.774Z,21.80
2022-12-29T20:31:18.969Z,22.63
2022-12-29T20:33:49.595Z,19.50
2022-12-29T20:36:19.255Z,20.13
2022-12-29T20:38:47.077Z,24.87
2022-12-29T20:41:15.089Z,22.07
2022-12-29T20:43:42.810Z,22.10
2022-12-29T20:46:11.440Z,24.57
2022-12-29T20:48:39.374Z,21.77
2022-12-29T20:51:06.843Z,21.87
2022-12-29T20:53:34.373Z,26.40
2022-12-29T20:56:03.717Z,21.80
2022-12-29T20:58:31.396Z,22.53
2022-12-29T21:01:02.155Z,23.27
2022-12-29T21:03:30.253Z,21.33
2022-12-29T21:05:58.032Z,20.40
2022-12-29T21:08:25.550Z,21.57
2022-12-29T21:10:53.069Z,19.47
2022-12-29T21:13:20.728Z,22.57
2022-12-29T21:15:48.094Z,21.47
2022-12-29T21:18:15.623Z,22.63
2022-12-29T21:20:43.029Z,21.87
2022-12-29T21:23:10.463Z,20.20
2022-12-29T21:25:37.849Z,22.53
2022-12-29T21:28:05.832Z,21.40
2022-12-29T21:30:33.568Z,22.50
2022-12-29T21:33:01.656Z,18.77
2022-12-29T21:35:29.260Z,21.60
2022-12-29T21:37:56.636Z,30.07
2022-12-29T21:40:24.085Z,21.43
2022-12-29T21:42:51.638Z,21.43
2022-12-29T21:45:25.424Z,21.63
2022-12-29T21:48:16.618Z,21.83
2022-12-29T21:51:04.103Z,19.93
2022-12-29T21:53:39.023Z,20.17
2022-12-29T21:56:07.660Z,19.27
2022-12-29T21:59:08.559Z,25.17
2022-12-29T22:01:55.965Z,21.60
2022-12-29T22:04:43.759Z,22.97
2022-12-29T22:07:30.435Z,20.83
2022-12-29T22:10:16.233Z,19.50
2022-12-29T22:12:59.989Z,17.10
2022-12-29T22:15:28.379Z,19.20
2022-12-29T22:17:56.173Z,19.27
2022-12-29T22:20:24.850Z,18.93
2022-12-29T22:22:52.271Z,20.73
2022-12-29T22:25:20.004Z,18.67
2022-12-29T22:27:47.423Z,20.13
2022-12-29T22:30:15.045Z,22.87
2022-12-29T22:32:42.583Z,17.90
2022-12-29T22:35:10.827Z,17.67
2022-12-29T22:37:38.895Z,20.33
